Terminal Aerodrome Forecast
Issued by NWS Greer, SC

Home | Current Version | Previous Version | Text Only | Print | Product List | Glossary On
Versions: 1 2 3 4 5 6 7 8 9 10 11 12 13 14 15 16 17 18 19 20 21 22 23 24 25 26 27 28 29 30 31 32 33 34 35 36 37 38 39 40 41 42 43 44 45 46 47 48 49 50
676
FTUS42 KGSP 211745
TAFCLT
TAF
KCLT 211745Z 2118/2218 07004KT 4SM BR OVC005
     FM211900 11003KT 3SM -RA BR OVC004
      TEMPO 2119/2123 1SM SHRA BR
     FM220100 14005KT P6SM -RA OVC003
     FM220700 24004KT 1SM BR OVC003 PROB30 2209/2215 2SM TSRA BR
      OVC006CB
     FM221500 19009KT 4SM SHRA OVC005=

USA.gov is the U.S. government's official web portal to all federal, state and local government web resources and services.